East Marion, NY (11939)

8:21 AM EDT on June 23, 2017 (GMT -0400)
Peconic Landing | | Change Station

Elev 50 ft 41.12 °N, 72.36 °W | Updated 38 seconds ago

Clear
Clear
82.8 °F
Feels Like 90 °F
N
4.0
Wind Variable Wind from ESE
Gusts 7.0 mph

Today
High -- | Low -- °F
--% Chance of Precip.
Yesterday
High -- | Low -- °F
Precip. -- in
Pressure 29.84 in
Visibility 10.0 miles
Clouds Clear
Heat Index 90 °F
Dew Point 74 °F
Humidity 76%
Rainfall 0.00 in
Snow Depth Not available.
5:17 AM 8:25 PM
Waning Crescent, 1% visible
METAR KHTO 231215Z AUTO 21006KT 10SM CLR 24/21 A2984 RMK AO2 T02350205
Pressure 29.84 in
Visibility 10.0 miles
Clouds Clear
Heat Index 90 °F
Dew Point 74 °F
Humidity 76%
Rainfall 0.00 in
Snow Depth Not available.
5:17 AM 8:25 PM
Waning Crescent, 1% visible
METAR KHTO 231215Z AUTO 21006KT 10SM CLR 24/21 A2984 RMK AO2 T02350205

Get Severe Weather Alerts

Thanks for signing up!

Be on the lookout for a verification email in your inbox.

You'll start receiving the daily forecast at 6 AM.

×

10-Day Weather Forecast

Almanac

Astronomy

Jun. 23, 2017 Rise Set
Actual Time
Civil Twilight
Nautical Twilight
Astronomical Twilight
Moon
Length of Visible Light
Length of Day
Tomorrow will be .
, % of the Moon is Illuminated

Today's Extremes

State Highs State Lows

Community

WunderPhotos

Category 6

Welcome to Category 6. This is the collective home for Weather Underground's featured writeups by Dr. Jeff Masters (right), Bob Henson (left), Chris Burt, and other regular contributors.

Nearby

Air Quality

  Air Quality AQ Index Pollutant
Not available.

Snow Depth

Station Depth Elevation

Earthquake Activity

City Distance Mag. Time & Date
Minimum magnitude displayed is 2.5.

Coastal Water Temperatures

Place Temperature

Stations

Nearby Weather Stations

Station Location Temp. Windchill Dew Point Humidity Wind Precip. Elev Updated Type
                   

Watches & Warnings

There are currently no watches in effect.